Time;durP1;ratioP1;P1;durP2;ratioP2;P2;SDS_P1;SDS_P2;PMS_P1;PMS_P2;Temp;Humidity;BMP_temperature;BMP_pressure;BME280_temperature;BME280_humidity;BME280_pressure;Samples;Min_cycle;Max_cycle;Signal;HPM_P1;HPM_P2
2021/07/23 00:01:55;;;;;;;1.58;1.10;;;24.80;50.40;;;-147.20;100.00;58430.41;5113613;28;20075;-55
2021/07/23 00:04:21;;;;;;;1.52;1.42;;;24.80;50.40;;;-147.20;100.00;58430.41;5094776;28;20047;-54
2021/07/23 00:06:49;;;;;;;1.30;1.20;;;24.80;50.40;;;-147.20;100.00;58430.41;5113644;28;20043;-53
2021/07/23 00:09:15;;;;;;;1.52;1.42;;;24.80;50.40;;;-147.20;100.00;58430.41;5113011;28;20052;-54
2021/07/23 00:11:40;;;;;;;1.67;1.55;;;24.80;50.40;;;-147.20;100.00;58430.41;5094988;28;20112;-50
2021/07/23 00:14:06;;;;;;;1.27;1.17;;;24.80;50.40;;;-147.20;100.00;58430.41;5113246;28;20059;-50
2021/07/23 00:16:32;;;;;;;1.60;1.50;;;24.80;50.50;;;-147.20;100.00;58430.41;5095005;28;20534;-52
2021/07/23 00:18:58;;;;;;;1.35;1.23;;;24.80;50.50;;;-147.20;100.00;58430.41;5112649;28;20051;-50
2021/07/23 00:21:24;;;;;;;1.48;1.38;;;24.80;50.50;;;-147.20;100.00;58430.41;5096939;28;20108;-53
2021/07/23 00:23:49;;;;;;;2.17;1.50;;;24.80;50.50;;;-147.20;100.00;58430.41;5116515;28;20387;-50
2021/07/23 00:26:18;;;;;;;1.27;1.17;;;24.80;50.50;;;-147.20;100.00;58430.41;5116868;28;20043;-52
2021/07/23 00:28:45;;;;;;;1.38;1.23;;;24.80;50.50;;;-147.20;100.00;58430.41;5116501;28;20048;-49
2021/07/23 00:31:11;;;;;;;1.50;1.40;;;24.80;50.60;;;-147.20;100.00;58430.41;5116199;28;20078;-54
2021/07/23 00:33:40;;;;;;;1.38;1.27;;;24.70;50.50;;;-147.20;100.00;58430.41;5113979;28;20543;-50
2021/07/23 00:36:07;;;;;;;1.35;1.25;;;24.80;50.60;;;-147.20;100.00;58430.41;5116375;28;20138;-52
2021/07/23 00:38:33;;;;;;;1.30;1.20;;;24.80;50.60;;;-147.20;100.00;58430.41;5097708;28;20552;-52
2021/07/23 00:40:59;;;;;;;1.63;1.52;;;24.70;50.50;;;-147.20;100.00;58430.41;5116122;28;20055;-51
2021/07/23 00:43:25;;;;;;;1.50;1.40;;;24.70;51.10;;;-147.20;100.00;58430.41;5080136;28;20048;-50
2021/07/23 00:45:53;;;;;;;1.35;1.25;;;24.70;50.50;;;-147.20;100.00;58430.41;5115943;28;20085;-52
2021/07/23 00:48:19;;;;;;;1.48;1.38;;;24.70;50.60;;;-147.20;100.00;58430.41;5115758;28;20513;-52
2021/07/23 00:50:46;;;;;;;1.40;1.30;;;24.70;50.60;;;-147.20;100.00;58430.41;5116200;28;20043;-51
2021/07/23 00:53:15;;;;;;;1.48;1.38;;;24.70;50.60;;;-147.20;100.00;58430.41;5115827;28;20047;-54
2021/07/23 00:55:50;;;;;;;1.30;1.20;;;24.70;50.60;;;-147.20;100.00;58430.41;5098058;28;20502;-52
2021/07/23 00:58:16;;;;;;;2.53;1.98;;;24.70;50.50;;;-147.20;100.00;58430.41;5115715;28;20105;-50
2021/07/23 01:00:42;;;;;;;1.55;1.45;;;24.70;50.60;;;-147.20;100.00;58430.41;5115844;28;20044;-51
2021/07/23 01:03:08;;;;;;;1.60;1.50;;;24.70;50.60;;;-147.20;100.00;58430.41;5115422;28;20059;-53
2021/07/23 01:05:36;;;;;;;1.40;1.30;;;24.70;50.60;;;-147.20;100.00;58430.41;5114706;28;20048;-52
2021/07/23 01:08:05;;;;;;;1.30;1.20;;;24.70;50.60;;;-147.20;100.00;58430.41;5081830;28;20048;-48
2021/07/23 01:10:38;;;;;;;1.23;1.15;;;24.70;50.60;;;-147.20;100.00;58430.41;5114790;28;20134;-49
2021/07/23 01:13:16;;;;;;;2.25;1.27;;;24.70;50.60;;;-147.20;100.00;58430.41;5095319;28;20063;-46
2021/07/23 01:15:44;;;;;;;1.40;1.30;;;24.70;50.60;;;-147.20;100.00;58430.41;5113964;28;20550;-48
2021/07/23 01:18:11;;;;;;;1.80;1.50;;;24.70;50.60;;;-147.20;100.00;58430.41;5113553;28;20480;-50
2021/07/23 01:20:40;;;;;;;1.42;1.20;;;24.70;50.60;;;-147.20;100.00;58430.41;5115787;28;20086;-49
2021/07/23 01:23:08;;;;;;;1.48;1.38;;;24.70;50.60;;;-147.20;100.00;58430.41;5064345;28;20499;-54
2021/07/23 01:25:34;;;;;;;1.35;1.25;;;24.70;50.70;;;-147.20;100.00;58430.41;5097235;28;20138;-46
2021/07/23 01:28:02;;;;;;;1.30;1.20;;;24.70;50.70;;;-147.20;100.00;58430.41;5096212;28;20044;-53
2021/07/23 01:30:38;;;;;;;1.23;1.13;;;24.70;50.70;;;-147.20;100.00;58430.41;5097513;28;20142;-47
2021/07/23 01:33:18;;;;;;;1.23;1.20;;;24.70;50.70;;;-147.20;100.00;58430.41;5114578;28;20385;-54
2021/07/23 01:35:45;;;;;;;1.10;1.10;;;24.70;50.70;;;-147.20;100.00;58430.41;5112765;28;20071;-54
2021/07/23 01:38:16;;;;;;;1.65;1.55;;;24.70;50.70;;;-147.20;100.00;58430.41;5111951;28;20142;-55
2021/07/23 01:40:43;;;;;;;1.10;1.10;;;24.70;50.70;;;-147.20;100.00;58430.41;5115393;28;20040;-51
2021/07/23 01:43:11;;;;;;;1.42;1.33;;;24.70;50.70;;;-147.20;100.00;58430.41;5080180;28;20043;-53
2021/07/23 01:45:37;;;;;;;1.50;1.40;;;24.70;50.70;;;-147.20;100.00;58430.41;5113782;28;20529;-49
2021/07/23 01:48:36;;;;;;;1.63;1.52;;;24.70;50.70;;;-147.20;100.00;58430.41;5080467;28;20059;-52
2021/07/23 01:51:08;;;;;;;1.40;1.30;;;24.70;50.70;;;-147.20;100.00;58430.41;5096994;28;20170;-55
2021/07/23 01:53:35;;;;;;;1.17;1.13;;;24.70;50.70;;;-147.20;100.00;58430.41;5096894;28;20383;-53
2021/07/23 01:56:01;;;;;;;1.40;1.30;;;24.70;50.70;;;-147.20;100.00;58430.41;5113959;28;20048;-54
2021/07/23 01:58:31;;;;;;;1.13;1.13;;;24.60;50.70;;;-147.20;100.00;58430.41;5095782;28;20047;-54
2021/07/23 02:00:59;;;;;;;1.30;1.20;;;24.60;50.70;;;-147.20;100.00;58430.41;5114058;28;20043;-51
2021/07/23 02:03:29;;;;;;;1.58;1.17;;;24.60;50.70;;;-147.20;100.00;58430.41;5093422;28;20098;-52
2021/07/23 02:05:55;;;;;;;1.40;1.30;;;24.60;50.70;;;-147.20;100.00;58430.41;5113523;28;20052;-49
2021/07/23 02:08:21;;;;;;;1.55;1.45;;;24.60;50.70;;;-147.20;100.00;58430.41;5112038;28;20040;-51
2021/07/23 02:10:48;;;;;;;1.27;1.20;;;24.60;50.70;;;-147.20;100.00;58430.41;5111705;28;20052;-53
2021/07/23 02:13:14;;;;;;;1.48;1.38;;;24.60;50.80;;;-147.20;100.00;58430.41;5114732;28;20476;-51
2021/07/23 02:15:44;;;;;;;1.58;1.35;;;24.60;50.70;;;-147.20;100.00;58430.41;5112629;28;20056;-51
2021/07/23 02:18:15;;;;;;;1.10;1.00;;;24.60;50.70;;;-147.20;100.00;58430.41;5096020;28;20082;-50
2021/07/23 02:20:43;;;;;;;1.20;1.10;;;24.60;50.70;;;-147.20;100.00;58430.41;5112082;28;20087;-52
2021/07/23 02:23:09;;;;;;;1.40;1.30;;;24.60;50.80;;;-147.20;100.00;58430.41;5114459;28;20054;-53
2021/07/23 02:25:53;;;;;;;1.33;1.23;;;24.60;50.80;;;-147.20;100.00;58430.41;5114908;28;20589;-52
2021/07/23 02:28:19;;;;;;;1.27;1.17;;;24.60;50.80;;;-147.20;100.00;58430.41;5095520;28;20055;-52
2021/07/23 02:30:50;;;;;;;;;;;24.60;50.80;;;-147.20;100.00;58430.41;5114739;28;20495;-49
2021/07/23 02:33:29;;;;;;;1.50;1.40;;;24.60;50.80;;;-147.20;100.00;58430.41;5096153;28;20287;-53
2021/07/23 02:36:11;;;;;;;1.48;1.38;;;24.60;50.80;;;-147.20;100.00;58430.41;5095515;28;20069;-50
2021/07/23 02:38:38;;;;;;;1.08;1.00;;;24.60;50.80;;;-147.20;100.00;58430.41;5112927;28;20047;-50
2021/07/23 02:41:09;;;;;;;1.33;1.25;;;24.60;50.80;;;-147.20;100.00;58430.41;5095576;28;20452;-52
2021/07/23 02:43:36;;;;;;;1.40;1.30;;;24.60;50.80;;;-147.20;100.00;58430.41;5113043;28;20074;-51
2021/07/23 02:46:04;;;;;;;1.25;1.15;;;24.60;50.80;;;-147.20;100.00;58430.41;5095837;28;20552;-53
2021/07/23 02:48:29;;;;;;;1.40;1.30;;;24.50;50.80;;;-147.20;100.00;58430.41;5112336;28;20043;-50
2021/07/23 02:50:56;;;;;;;1.52;1.17;;;24.50;50.80;;;-147.20;100.00;58430.41;5112783;28;20483;-53
2021/07/23 02:53:22;;;;;;;1.25;1.13;;;24.60;50.90;;;-147.20;100.00;58430.41;5112168;28;20054;-48
2021/07/23 02:55:52;;;;;;;1.98;1.30;;;24.50;50.80;;;-147.20;100.00;58430.41;5113942;28;20052;-51
2021/07/23 02:58:18;;;;;;;1.23;1.13;;;24.50;50.80;;;-147.20;100.00;58430.41;5111054;28;20044;-53
2021/07/23 03:00:45;;;;;;;1.25;1.23;;;24.50;50.80;;;-147.20;100.00;58430.41;5081274;28;20050;-48
2021/07/23 03:03:11;;;;;;;1.33;1.23;;;24.50;50.80;;;-147.20;100.00;58430.41;5112128;28;20047;-52
2021/07/23 03:05:39;;;;;;;1.30;1.20;;;24.50;50.90;;;-147.20;100.00;58430.41;5111528;28;20146;-50
2021/07/23 03:08:13;;;;;;;1.30;1.17;;;24.50;50.90;;;-147.20;100.00;58430.41;5080493;28;20053;-51
2021/07/23 03:10:51;;;;;;;1.20;1.10;;;24.50;50.90;;;-147.20;100.00;58430.41;5110607;28;20040;-51
2021/07/23 03:13:17;;;;;;;1.30;1.20;;;24.50;50.90;;;-147.20;100.00;58430.41;5111674;28;20063;-50
2021/07/23 03:15:43;;;;;;;1.20;1.20;;;24.50;50.90;;;-147.20;100.00;58430.41;5113696;28;20513;-50
2021/07/23 03:18:11;;;;;;;2.03;1.30;;;24.50;51.40;;;-147.20;100.00;58430.41;5114137;28;20120;-54
2021/07/23 03:20:39;;;;;;;1.13;1.08;;;24.50;50.90;;;-147.20;100.00;58430.41;5095150;28;20134;-50
2021/07/23 03:23:06;;;;;;;1.23;1.13;;;24.50;50.90;;;-147.20;100.00;58430.41;5112217;28;20100;-46
2021/07/23 03:25:43;;;;;;;1.25;1.15;;;24.50;50.90;;;-147.20;100.00;58430.41;5113632;28;20483;-51
2021/07/23 03:28:18;;;;;;;1.52;1.30;;;24.50;50.90;;;-147.20;100.00;58430.41;5095521;28;20035;-49
2021/07/23 03:30:53;;;;;;;1.38;1.27;;;24.50;50.90;;;-147.20;100.00;58430.41;5112201;28;20092;-49
2021/07/23 03:33:22;;;;;;;1.40;1.30;;;24.50;50.90;;;-147.20;100.00;58430.41;5094819;28;20071;-48
2021/07/23 03:35:48;;;;;;;0.93;0.93;;;24.50;50.90;;;-147.20;100.00;58430.41;5112055;28;20043;-51
2021/07/23 03:38:16;;;;;;;1.33;1.23;;;24.50;50.90;;;-147.20;100.00;58430.41;5110886;28;20181;-52
2021/07/23 03:40:42;;;;;;;2.05;1.40;;;24.50;50.90;;;-147.20;100.00;58430.41;5113125;28;20074;-50
2021/07/23 03:43:13;;;;;;;1.40;1.20;;;24.40;50.90;;;-147.20;100.00;58430.41;5095800;28;20089;-47
2021/07/23 03:45:54;;;;;;;1.40;1.20;;;24.50;50.90;;;-147.20;100.00;58430.41;5111258;28;20052;-51
2021/07/23 03:48:20;;;;;;;1.50;1.33;;;24.50;50.90;;;-147.20;100.00;58430.41;5076851;28;20110;-48
2021/07/23 03:50:48;;;;;;;1.30;1.20;;;24.40;50.90;;;-147.20;100.00;58430.41;5108975;28;20051;-51
2021/07/23 03:53:17;;;;;;;1.13;1.10;;;24.50;51.00;;;-147.20;100.00;58430.41;5111485;28;20061;-49
2021/07/23 03:55:45;;;;;;;1.45;1.27;;;24.50;51.00;;;-147.20;100.00;58430.41;5112819;28;20113;-51
2021/07/23 03:58:19;;;;;;;1.30;1.20;;;24.40;50.90;;;-147.20;100.00;58430.41;5111617;28;20488;-50
2021/07/23 04:00:45;;;;;;;1.30;1.20;;;24.40;50.90;;;-147.20;100.00;58430.41;5111346;28;20044;-51
2021/07/23 04:03:11;;;;;;;1.30;1.20;;;24.40;50.90;;;-147.20;100.00;58430.41;5110479;28;20051;-49
2021/07/23 04:05:37;;;;;;;1.33;1.20;;;24.50;51.50;;;-147.20;100.00;58430.41;5113058;28;20059;-49
2021/07/23 04:08:05;;;;;;;1.20;1.10;;;24.40;50.90;;;-147.20;100.00;58430.41;5094671;28;20071;-49
2021/07/23 04:10:33;;;;;;;1.30;1.20;;;24.50;51.00;;;-147.20;100.00;58430.41;5092920;28;20052;-47
2021/07/23 04:12:59;;;;;;;1.08;1.05;;;24.50;51.00;;;-147.20;100.00;58430.41;5111980;28;20131;-49
2021/07/23 04:15:27;;;;;;;1.95;1.25;;;24.40;50.90;;;-147.20;100.00;58430.41;5094940;28;20054;-49
2021/07/23 04:18:08;;;;;;;1.60;1.50;;;24.40;50.90;;;-147.20;100.00;58430.41;5079674;28;20051;-46
2021/07/23 04:20:37;;;;;;;1.30;1.20;;;24.40;51.00;;;-147.20;100.00;58430.41;5111102;28;20050;-48
2021/07/23 04:23:04;;;;;;;1.30;1.20;;;24.40;50.90;;;-147.20;100.00;58430.41;5111412;28;20438;-50
2021/07/23 04:25:31;;;;;;;1.63;1.17;;;24.40;50.90;;;-147.20;100.00;58430.41;5112032;28;20067;-49
2021/07/23 04:27:58;;;;;;;1.30;1.20;;;24.40;50.90;;;-147.20;100.00;58430.41;5109638;28;20369;-48
2021/07/23 04:30:33;;;;;;;0.95;0.95;;;24.40;50.90;;;-147.20;100.00;58430.41;5094421;28;20052;-51
2021/07/23 04:33:18;;;;;;;1.38;1.27;;;24.40;50.90;;;-147.20;100.00;58430.41;5111624;28;20043;-46
2021/07/23 04:35:58;;;;;;;1.35;1.25;;;24.40;50.90;;;-147.20;100.00;58430.41;5111796;28;20044;-48
2021/07/23 04:38:24;;;;;;;2.47;1.10;;;24.40;50.90;;;-147.20;100.00;58430.41;5112048;28;20124;-47
2021/07/23 04:40:55;;;;;;;;;;;24.40;50.90;;;-147.20;100.00;58430.41;5113345;28;20047;-52
2021/07/23 04:43:31;;;;;;;1.40;1.30;;;24.40;50.90;;;-147.20;100.00;58430.41;5094084;28;20006;-51
2021/07/23 04:45:58;;;;;;;1.42;1.20;;;24.40;50.90;;;-147.20;100.00;58430.41;5112680;28;20055;-46
2021/07/23 04:48:24;;;;;;;1.52;1.42;;;24.40;50.90;;;-147.20;100.00;58430.41;5092825;28;20044;-47
2021/07/23 04:51:06;;;;;;;1.48;1.35;;;24.40;50.90;;;-147.20;100.00;58430.41;5109769;28;20052;-52
2021/07/23 04:53:50;;;;;;;1.40;1.30;;;24.40;50.90;;;-147.20;100.00;58430.41;5112580;28;20050;-51
2021/07/23 04:56:51;;;;;;;1.38;1.27;;;24.40;50.90;;;-147.20;100.00;58430.41;5112008;28;20066;-49
2021/07/23 04:59:17;;;;;;;1.10;1.00;;;24.40;50.90;;;-147.20;100.00;58430.41;5093713;28;20047;-46
2021/07/23 05:01:43;;;;;;;1.45;1.35;;;24.40;51.50;;;-147.20;100.00;58430.41;5112741;28;20494;-53
2021/07/23 05:04:12;;;;;;;1.50;1.40;;;24.40;50.90;;;-147.20;100.00;58430.41;5110867;28;20502;-53
2021/07/23 05:06:39;;;;;;;1.15;1.05;;;24.40;50.90;;;-147.20;100.00;58430.41;5095169;28;20051;-49
2021/07/23 05:09:06;;;;;;;1.20;1.10;;;24.40;50.90;;;-147.20;100.00;58430.41;5076261;28;20075;-47
2021/07/23 05:11:35;;;;;;;1.25;1.10;;;24.40;50.90;;;-147.20;100.00;58430.41;5097825;28;20051;-48
2021/07/23 05:14:01;;;;;;;1.45;1.35;;;24.40;50.90;;;-147.20;100.00;58430.41;5115717;28;20055;-50
2021/07/23 05:16:28;;;;;;;1.10;1.10;;;24.40;50.90;;;-147.20;100.00;58430.41;5115497;28;20468;-52
2021/07/23 05:18:54;;;;;;;1.52;1.42;;;24.40;50.80;;;-147.20;100.00;58430.41;5115559;28;20043;-50
2021/07/23 05:21:20;;;;;;;1.15;1.10;;;24.40;50.80;;;-147.20;100.00;58430.41;5115590;28;20479;-48
2021/07/23 05:23:46;;;;;;;1.30;1.20;;;24.40;50.80;;;-147.20;100.00;58430.41;5115550;28;20046;-49
2021/07/23 05:26:13;;;;;;;1.13;1.00;;;24.40;50.80;;;-147.20;100.00;58430.41;5115468;28;20076;-48
2021/07/23 05:28:39;;;;;;;1.33;1.20;;;24.40;50.90;;;-147.20;100.00;58430.41;5115468;28;20411;-50
2021/07/23 05:31:07;;;;;;;1.23;1.10;;;24.40;50.80;;;-147.20;100.00;58430.41;5097403;28;20131;-48
2021/07/23 05:33:32;;;;;;;1.40;1.30;;;24.40;50.80;;;-147.20;100.00;58430.41;5115940;28;20043;-50
2021/07/23 05:35:58;;;;;;;2.85;1.40;;;24.40;50.80;;;-147.20;100.00;58430.41;5115290;28;20077;-45
2021/07/23 05:38:24;;;;;;;1.52;1.42;;;24.50;50.80;;;-147.20;100.00;58430.41;5114969;28;20392;-49
2021/07/23 05:40:50;;;;;;;1.20;1.10;;;24.40;50.70;;;-147.20;100.00;58430.41;5115552;28;20062;-48
2021/07/23 05:43:17;;;;;;;1.20;1.10;;;24.50;50.80;;;-147.20;100.00;58430.41;5115693;28;20105;-51
2021/07/23 05:45:42;;;;;;;1.67;1.40;;;24.50;50.80;;;-147.20;100.00;58430.41;5115672;28;20055;-49
2021/07/23 05:48:08;;;;;;;1.75;1.30;;;24.40;50.70;;;-147.20;100.00;58430.41;5113291;28;20453;-46
2021/07/23 05:50:34;;;;;;;1.45;1.35;;;24.50;50.70;;;-147.20;100.00;58430.41;5115145;28;20047;-47
2021/07/23 05:53:00;;;;;;;1.30;1.20;;;24.50;50.70;;;-147.20;100.00;58430.41;5115112;28;20101;-46
2021/07/23 05:55:27;;;;;;;1.17;1.10;;;24.50;50.70;;;-147.20;100.00;58430.41;5079667;28;20097;-48
2021/07/23 05:57:57;;;;;;;1.33;1.23;;;24.50;50.70;;;-147.20;100.00;58430.41;5114965;28;20040;-50
2021/07/23 06:00:25;;;;;;;1.25;1.15;;;24.50;50.70;;;-147.20;100.00;58430.41;5115313;28;20526;-50
2021/07/23 06:02:51;;;;;;;1.85;1.27;;;24.50;50.70;;;-147.20;100.00;58430.41;5115086;28;20047;-49
2021/07/23 06:05:17;;;;;;;1.38;1.27;;;24.50;50.70;;;-147.20;100.00;58430.41;5114850;28;20084;-50
2021/07/23 06:07:43;;;;;;;1.80;1.20;;;24.50;50.70;;;-147.20;100.00;58430.41;5096292;28;20048;-51
2021/07/23 06:10:09;;;;;;;1.35;1.10;;;24.50;50.70;;;-147.20;100.00;58430.41;5114782;28;20048;-51
2021/07/23 06:12:35;;;;;;;1.13;1.10;;;24.50;50.70;;;-147.20;100.00;58430.41;5114579;28;20116;-50
2021/07/23 06:15:00;;;;;;;1.65;1.55;;;24.50;50.80;;;-147.20;100.00;58430.41;5114708;28;20500;-49
2021/07/23 06:17:26;;;;;;;1.20;1.05;;;24.40;50.70;;;-147.20;100.00;58430.41;5113763;28;20044;-50
2021/07/23 06:19:52;;;;;;;1.40;1.30;;;24.50;50.80;;;-147.20;100.00;58430.41;5114206;28;20496;-49
2021/07/23 06:22:19;;;;;;;1.30;1.20;;;24.40;50.70;;;-147.20;100.00;58430.41;5114897;28;20067;-52
2021/07/23 06:24:45;;;;;;;1.25;1.13;;;24.40;50.80;;;-147.20;100.00;58430.41;5114826;28;20058;-51
2021/07/23 06:27:11;;;;;;;1.25;1.15;;;24.40;50.70;;;-147.20;100.00;58430.41;5096504;28;20462;-53
2021/07/23 06:29:36;;;;;;;2.05;1.45;;;24.40;50.70;;;-147.20;100.00;58430.41;5094957;28;20492;-54
2021/07/23 06:32:02;;;;;;;1.30;1.20;;;24.40;50.70;;;-147.20;100.00;58430.41;5096038;28;20146;-52
2021/07/23 06:34:28;;;;;;;1.42;1.30;;;24.40;50.70;;;-147.20;100.00;58430.41;5114318;28;20039;-50
2021/07/23 06:36:54;;;;;;;1.25;1.15;;;24.40;50.70;;;-147.20;100.00;58430.41;5114386;28;20555;-51
2021/07/23 06:39:20;;;;;;;1.45;1.30;;;24.40;50.80;;;-147.20;100.00;58430.41;5114333;28;20052;-51
2021/07/23 06:41:45;;;;;;;1.65;1.35;;;24.40;50.70;;;-147.20;100.00;58430.41;5114319;28;20047;-49
2021/07/23 06:44:12;;;;;;;1.45;1.20;;;24.40;50.80;;;-147.20;100.00;58430.41;5114254;28;20089;-55
2021/07/23 06:46:38;;;;;;;2.15;1.33;;;24.40;50.70;;;-147.20;100.00;58430.41;5114499;28;20047;-48
2021/07/23 06:49:04;;;;;;;2.17;1.20;;;24.40;50.80;;;-147.20;100.00;58430.41;5114190;28;20092;-51
2021/07/23 06:51:29;;;;;;;1.10;1.10;;;24.40;50.70;;;-147.20;100.00;58430.41;5114400;28;20108;-48
2021/07/23 06:53:55;;;;;;;1.20;1.10;;;24.40;50.80;;;-147.20;100.00;58430.41;5114422;28;20051;-48
2021/07/23 06:56:21;;;;;;;1.23;1.10;;;24.40;50.80;;;-147.20;100.00;58430.41;5114046;28;20055;-46
2021/07/23 06:58:47;;;;;;;1.40;1.30;;;24.40;50.70;;;-147.20;100.00;58430.41;5114024;28;20479;-47
2021/07/23 07:01:13;;;;;;;1.73;1.40;;;24.50;50.80;;;-147.20;100.00;58430.41;5114248;28;20055;-49
2021/07/23 07:03:39;;;;;;;1.25;1.20;;;24.50;50.70;;;-147.20;100.00;58430.41;5113978;28;20048;-46
2021/07/23 07:06:07;;;;;;;1.45;1.30;;;24.50;50.70;;;-147.20;100.00;58430.41;5114144;28;20047;-48
2021/07/23 07:08:33;;;;;;;1.30;1.20;;;24.50;50.70;;;-147.20;100.00;58430.41;5114086;28;20039;-48
2021/07/23 07:11:00;;;;;;;1.30;1.20;;;24.50;50.70;;;-147.20;100.00;58430.41;5113942;28;20506;-50
2021/07/23 07:13:25;;;;;;;1.38;1.27;;;24.50;50.70;;;-147.20;100.00;58430.41;5113898;28;20063;-46
2021/07/23 07:15:51;;;;;;;1.30;1.20;;;24.50;51.20;;;-147.20;100.00;58430.41;5113591;28;20494;-46
2021/07/23 07:18:17;;;;;;;1.52;1.17;;;24.50;50.70;;;-147.20;100.00;58430.41;5113387;28;20054;-47
2021/07/23 07:20:43;;;;;;;1.23;1.13;;;24.50;50.70;;;-147.20;100.00;58430.41;5092324;28;20055;-49
2021/07/23 07:23:09;;;;;;;1.50;1.40;;;24.50;50.60;;;-147.20;100.00;58430.41;5113601;28;20047;-49
2021/07/23 07:25:34;;;;;;;1.30;1.20;;;24.50;50.60;;;-147.20;100.00;58430.41;5113812;28;20047;-50
2021/07/23 07:28:02;;;;;;;1.30;1.20;;;24.50;50.50;;;-147.20;100.00;58430.41;5113561;28;20066;-50
2021/07/23 07:30:28;;;;;;;1.30;1.20;;;24.50;50.50;;;-147.20;100.00;58430.41;5112943;28;20126;-53
2021/07/23 07:32:54;;;;;;;1.20;1.10;;;24.50;50.50;;;-147.20;100.00;58430.41;5111959;28;20135;-48
2021/07/23 07:35:20;;;;;;;1.33;1.23;;;24.60;50.50;;;-147.20;100.00;58430.41;5113908;28;20048;-50
2021/07/23 07:37:45;;;;;;;1.50;1.00;;;24.60;50.40;;;-147.20;100.00;58430.41;5114014;28;20047;-48
2021/07/23 07:40:12;;;;;;;1.67;1.45;;;24.60;50.40;;;-147.20;100.00;58430.41;5113460;28;20047;-48
2021/07/23 07:42:37;;;;;;;1.55;1.20;;;24.60;50.40;;;-147.20;100.00;58430.41;5113396;28;20063;-47
2021/07/23 07:45:05;;;;;;;1.30;1.20;;;24.60;50.30;;;-147.20;100.00;58430.41;5113533;28;20126;-53
2021/07/23 07:47:31;;;;;;;1.52;1.42;;;24.60;50.30;;;-147.20;100.00;58430.41;5113264;28;20051;-49
2021/07/23 07:49:57;;;;;;;1.30;1.20;;;24.60;50.30;;;-147.20;100.00;58430.41;5113092;28;20042;-48
2021/07/23 07:52:22;;;;;;;1.33;1.20;;;24.60;50.30;;;-147.20;100.00;58430.41;5094760;28;20048;-51
2021/07/23 07:54:48;;;;;;;1.33;1.23;;;24.60;50.30;;;-147.20;100.00;58430.41;5113811;28;20047;-46
2021/07/23 07:57:15;;;;;;;1.45;1.25;;;24.60;50.20;;;-147.20;100.00;58430.41;5113240;28;20043;-48
2021/07/23 07:59:41;;;;;;;2.80;1.33;;;24.60;50.20;;;-147.20;100.00;58430.41;5113032;28;20043;-50
2021/07/23 08:02:09;;;;;;;1.45;1.30;;;24.60;50.20;;;-147.20;100.00;58430.41;5094770;28;20052;-48
2021/07/23 08:04:35;;;;;;;1.60;1.50;;;24.70;50.20;;;-147.20;100.00;58430.41;5093424;28;20131;-49
2021/07/23 08:07:01;;;;;;;1.40;1.10;;;24.70;50.20;;;-147.20;100.00;58430.41;5094867;28;20047;-48
2021/07/23 08:09:27;;;;;;;1.40;1.30;;;24.70;50.10;;;-147.20;100.00;58430.41;5111038;28;20146;-51
2021/07/23 08:11:54;;;;;;;1.75;1.05;;;24.70;50.10;;;-147.20;100.00;58430.41;5094824;28;20071;-48
2021/07/23 08:14:19;;;;;;;1.50;1.33;;;24.70;50.10;;;-147.20;100.00;58430.41;5112948;28;20450;-47
2021/07/23 08:16:46;;;;;;;1.10;1.10;;;24.70;50.10;;;-147.20;100.00;58430.41;5112877;28;20044;-49
2021/07/23 08:19:13;;;;;;;1.33;1.23;;;24.70;50.60;;;-147.20;100.00;58430.41;5112597;28;20059;-48
2021/07/23 08:21:39;;;;;;;1.52;1.42;;;24.70;50.00;;;-147.20;100.00;58430.41;5111503;28;20052;-48
2021/07/23 08:24:05;;;;;;;1.40;1.30;;;24.70;50.00;;;-147.20;100.00;58430.41;5112825;28;20054;-51
2021/07/23 08:26:31;;;;;;;1.58;1.48;;;24.70;50.00;;;-147.20;100.00;58430.41;5112779;28;20131;-52
2021/07/23 08:28:57;;;;;;;1.40;1.30;;;24.70;50.00;;;-147.20;100.00;58430.41;5112932;28;20089;-53
2021/07/23 08:31:23;;;;;;;1.17;1.08;;;24.70;50.00;;;-147.20;100.00;58430.41;5094320;28;20050;-51
2021/07/23 08:33:48;;;;;;;1.38;1.25;;;24.80;50.00;;;-147.20;100.00;58430.41;5112680;28;20134;-48
2021/07/23 08:36:14;;;;;;;1.20;1.10;;;24.70;49.90;;;-147.20;100.00;58430.41;5112590;28;20056;-53
2021/07/23 08:38:40;;;;;;;1.23;1.15;;;24.80;49.90;;;-147.20;100.00;58430.41;5112642;28;20048;-50
2021/07/23 08:41:10;;;;;;;1.73;1.45;;;24.80;49.90;;;-147.20;100.00;58430.41;5113438;28;20046;-49
2021/07/23 08:43:37;;;;;;;1.33;1.23;;;24.80;49.80;;;-147.20;100.00;58430.41;5116295;28;20075;-51
2021/07/23 08:46:03;;;;;;;1.42;1.30;;;24.80;49.70;;;-147.20;100.00;58430.41;5116557;28;20085;-51
2021/07/23 08:48:29;;;;;;;1.00;1.00;;;24.80;49.70;;;-147.20;100.00;58430.41;5116162;28;20051;-53
2021/07/23 08:50:55;;;;;;;1.00;1.00;;;24.80;49.70;;;-147.20;100.00;58430.41;5116268;28;20048;-45
2021/07/23 08:53:20;;;;;;;1.58;1.30;;;24.80;49.70;;;-147.20;100.00;58430.41;5115853;28;20044;-48
2021/07/23 08:55:46;;;;;;;1.50;1.40;;;24.80;49.80;;;-147.20;100.00;58430.41;5115846;28;20043;-48
2021/07/23 08:58:12;;;;;;;1.73;1.40;;;24.80;49.80;;;-147.20;100.00;58430.41;5116097;28;20130;-48
2021/07/23 09:00:39;;;;;;;2.00;1.27;;;24.80;49.80;;;-147.20;100.00;58430.41;5115950;28;20040;-49
2021/07/23 09:03:07;;;;;;;1.45;1.33;;;24.80;49.80;;;-147.20;100.00;58430.41;5115868;28;20058;-48
2021/07/23 09:05:41;;;;;;;1.20;1.10;;;24.80;49.80;;;-147.20;100.00;58430.41;5115740;28;20039;-53
2021/07/23 09:08:18;;;;;;;1.20;1.10;;;24.80;49.80;;;-147.20;100.00;58430.41;5115769;28;20495;-51
2021/07/23 09:11:01;;;;;;;1.20;1.10;;;24.80;49.80;;;-147.20;100.00;58430.41;5115966;28;20078;-52
2021/07/23 09:13:27;;;;;;;1.75;1.35;;;24.80;49.80;;;-147.20;100.00;58430.41;5116025;28;20146;-49
2021/07/23 09:15:57;;;;;;;1.63;1.40;;;24.80;49.70;;;-147.20;100.00;58430.41;5115622;28;20055;-48
2021/07/23 09:18:33;;;;;;;1.23;1.20;;;24.90;49.70;;;-147.20;100.00;58430.41;5115531;28;20055;-49
2021/07/23 09:21:06;;;;;;;1.23;1.13;;;24.90;49.60;;;-147.20;100.00;58430.41;5115771;28;20051;-46
2021/07/23 09:23:36;;;;;;;1.73;1.30;;;24.90;49.60;;;-147.20;100.00;58430.41;5115130;28;20100;-47
2021/07/23 09:26:15;;;;;;;2.08;1.50;;;24.90;49.50;;;-147.20;100.00;58430.41;5096976;28;20069;-49
2021/07/23 09:28:45;;;;;;;1.40;1.30;;;24.90;49.50;;;-147.20;100.00;58430.41;5115619;28;20059;-46
2021/07/23 09:31:28;;;;;;;1.23;1.13;;;25.00;49.50;;;-147.20;100.00;58430.41;5115489;28;20132;-47
2021/07/23 09:33:58;;;;;;;1.85;1.27;;;25.00;49.40;;;-147.20;100.00;58430.41;5116020;28;20048;-50
2021/07/23 09:36:24;;;;;;;1.63;1.17;;;25.10;49.40;;;-147.20;100.00;58430.41;5097400;28;20100;-49
2021/07/23 09:38:50;;;;;;;1.38;1.10;;;25.10;49.30;;;-147.20;100.00;58430.41;5115224;28;20138;-49
2021/07/23 09:41:22;;;;;;;1.75;1.35;;;25.10;49.20;;;-147.20;100.00;58430.41;5115173;28;20079;-51
2021/07/23 09:44:11;;;;;;;1.20;1.10;;;25.10;49.20;;;-147.20;100.00;58430.41;5115476;28;20112;-50
2021/07/23 09:46:48;;;;;;;1.20;1.10;;;25.20;49.20;;;-147.20;100.00;58430.41;5097602;28;20476;-50
2021/07/23 09:49:26;;;;;;;1.00;0.93;;;25.20;49.10;;;-147.20;100.00;58430.41;5112636;28;20143;-50
2021/07/23 09:51:59;;;;;;;2.78;1.70;;;25.20;48.90;;;-147.20;100.00;58430.41;5114760;28;20048;-46
2021/07/23 09:54:25;;;;;;;1.63;1.23;;;25.20;48.90;;;-147.20;100.00;58430.41;5115620;28;20047;-49
2021/07/23 09:56:50;;;;;;;1.33;1.23;;;25.20;48.80;;;-147.20;100.00;58430.41;5115027;28;20054;-49
2021/07/23 09:59:28;;;;;;;1.35;1.25;;;25.20;48.80;;;-147.20;100.00;58430.41;5114738;28;20139;-48
2021/07/23 10:02:00;;;;;;;1.20;1.10;;;25.20;48.90;;;-147.20;100.00;58430.41;5114922;28;20434;-52
2021/07/23 10:04:34;;;;;;;1.60;1.50;;;25.20;48.90;;;-147.20;100.00;58430.41;5096642;28;20093;-50
2021/07/23 10:07:05;;;;;;;1.90;1.30;;;25.20;48.90;;;-147.20;100.00;58430.41;5115316;28;20104;-53